Aeroporto :
LOGIN :

Iscrizione | Disclaimer

   EN    FR    IT 

 










Sommario :    VFR   VFR Marginale   IFR   IFR Intensivo   IFR Molto Intensivo
Visibilità : 
Base nubi : 
>= 8 km
>= 3000ft
5 / 8 km
1000 / 3000 ft
1500m / 5 km
500 / 1000 ft
800 / 1500m
200 / 500 ft
< 800m
< 200 ft
Simboli :   Temporali  Nebbia  Neve Forte  Precipitazioni Forti  Vento > 20 kt
SIGMETs :   Varie  Temporali  Ghiacco  Turbolenza  Onda orograficha  Ceneri Vulcaniche






- Altitudine del aeroporto : 174 ft
- Codice IATA : RYG


ENRY - Moss , Rygge

ULTIMO METAR :
  • 200350Z AUTO 33003KT 310V020 9999NDV BKN020/// 01/00 Q1019

METARs OBSOLETI :
  • 200320Z AUTO 33005KT 9999NDV BKN020/// 02/01 Q1018
  • 200250Z AUTO 35004KT 9999NDV SCT012/// BKN030/// 02/01 Q1018
  • 200220Z AUTO 36004KT 9999NDV SCT022/// BKN031/// BKN042/// 03/02 Q1018
  • 200150Z AUTO 35005KT 9999NDV OVC022/// 04/03 Q1017
  • 200120Z AUTO 34003KT 9999NDV SCT012/// OVC023/// 04/03 Q1017

TAF TAF ENRY
Valido dal 20 a 00 ore il 21 a 00 ore UTC


2000/2024 36008KT 9999 FEW004 BKN015
TEMPO 2000/2002 2000 -DZ BR BKN004
PROB40 2002/2012 0500 FG VV001
TEMPO 2018/2024 4000 DZRA BKN006



MetMap, La meteo Aeronautica in un colpo d'occhio ! - Copyright ORBIFLY Dicembre 2007 - Disclaimer

ORBIFLY MET'MAP TEAM :

Programmazione e sviluppo : Alexandra Zaïnal
Concezione e sviluppo : Baudouin d'Aumeries
Co-Programmazione e sviluppo : Marc-Olivier Méhu
Supporto tecnico e logistico : Manuel Goepfert
Aiuto per la traduzione : Arnaldo La Scala

Contatto : metmap@orbifly.com




FONTI E CREDITI :

   NOAA